Weather at Frankfurt am Main Airport

Public forecast

Using degrees Celsius for public forecast. Weather courtesy of forecast.io.

Current aviation weather report (METAR) for Frankfurt am Main Airport

Retrieved 2021/01/28 07:20 UTC (26 minutes ago):

EDDF 280720Z 18005KT 4600 -RADZ BR FEW002 OVC003 03/03 Q1006 R25L/290095 R25C/290095 R18/290095 TEMPO 2500 RADZ

Aviation forecast (TAF) for Frankfurt am Main Airport

Retrieved 2021/01/28 06:32 UTC (1 hour ago):

TAF EDDF 280500Z 2806/2912 19008KT 5000 -RADZ BKN005 TEMPO 2806/2815 1400 RADZ BKN003 PROB30 TEMPO 2815/2820 24015G25KT 3000 SHRA BKN005TCU BECMG 2818/2820 BKN010 TEMPO 2904/2909 2000 RA BKN005